Time;durP1;ratioP1;P1;durP2;ratioP2;P2;SDS_P1;SDS_P2;PMS_P1;PMS_P2;Temp;Humidity;BMP_temperature;BMP_pressure;BME280_temperature;BME280_humidity;BME280_pressure;Samples;Min_cycle;Max_cycle;Signal;HPM_P1;HPM_P2
2024/03/14 00:02:05;;;;;;;;;25.00;23.67;;;;;;;;4981637;28;46913;-78
2024/03/14 00:04:31;;;;;;;;;27.33;27.33;;;;;;;;4963191;28;45401;-79
2024/03/14 00:06:57;;;;;;;;;22.00;20.00;;;;;;;;4981915;28;45278;-79
2024/03/14 00:09:22;;;;;;;;;26.33;21.33;;;;;;;;4981756;28;45449;-79
2024/03/14 00:11:49;;;;;;;;;14.67;14.67;;;;;;;;4980475;28;47243;-79
2024/03/14 00:14:14;;;;;;;;;18.67;16.67;;;;;;;;5001715;28;45353;-79
2024/03/14 00:16:40;;;;;;;;;17.00;16.00;;;;;;;;5001862;28;45698;-79
2024/03/14 00:19:05;;;;;;;;;17.67;16.00;;;;;;;;4983663;28;46958;-79
2024/03/14 00:21:30;;;;;;;;;10.33;10.00;;;;;;;;5001106;28;45366;-79
2024/03/14 00:23:55;;;;;;;;;16.00;14.33;;;;;;;;5001593;28;45345;-79
2024/03/14 00:26:21;;;;;;;;;16.00;14.33;;;;;;;;4984051;28;45398;-79
2024/03/14 00:28:46;;;;;;;;;13.67;13.67;;;;;;;;5001315;28;45857;-79
2024/03/14 00:31:12;;;;;;;;;13.00;11.33;;;;;;;;5000264;28;45340;-79
2024/03/14 00:33:37;;;;;;;;;12.00;11.00;;;;;;;;5001307;28;45354;-78
2024/03/14 00:36:04;;;;;;;;;11.33;10.67;;;;;;;;4983359;28;45319;-79
2024/03/14 00:38:30;;;;;;;;;10.67;10.00;;;;;;;;4983447;28;46090;-79
2024/03/14 00:40:55;;;;;;;;;12.00;9.00;;;;;;;;5000448;28;46004;-78
2024/03/14 00:43:21;;;;;;;;;11.00;10.33;;;;;;;;5001163;28;45289;-79
2024/03/14 00:45:46;;;;;;;;;11.00;9.00;;;;;;;;5001084;28;45287;-79
2024/03/14 00:48:11;;;;;;;;;9.00;9.00;;;;;;;;4999994;28;45500;-78
2024/03/14 00:50:36;;;;;;;;;10.00;9.33;;;;;;;;5000650;28;46228;-79
2024/03/14 00:53:02;;;;;;;;;13.67;10.33;;;;;;;;4982841;28;45338;-79
2024/03/14 00:55:27;;;;;;;;;12.67;9.67;;;;;;;;4983255;28;45388;-79
2024/03/14 00:57:52;;;;;;;;;14.33;14.33;;;;;;;;5008709;28;45258;-79
2024/03/14 01:00:18;;;;;;;;;22.00;19.33;;;;;;;;5000553;28;45473;-79
2024/03/14 01:02:43;;;;;;;;;31.67;26.33;;;;;;;;4982818;28;46082;-79
2024/03/14 01:05:08;;;;;;;;;24.67;21.33;;;;;;;;5000461;28;45202;-79
2024/03/14 01:07:34;;;;;;;;;24.33;19.00;;;;;;;;4983030;28;46171;-79
2024/03/14 01:09:59;;;;;;;;;29.67;26.00;;;;;;;;5000356;28;46260;-79
2024/03/14 01:12:24;;;;;;;;;26.67;23.00;;;;;;;;5000660;28;45273;-79
2024/03/14 01:14:50;;;;;;;;;26.00;23.00;;;;;;;;4982983;28;45334;-79
2024/03/14 01:17:16;;;;;;;;;18.00;18.00;;;;;;;;5000830;28;45257;-79
2024/03/14 01:19:41;;;;;;;;;18.00;18.00;;;;;;;;5000506;28;45275;-79
2024/03/14 01:22:07;;;;;;;;;14.67;14.67;;;;;;;;5000594;28;45246;-79
2024/03/14 01:24:32;;;;;;;;;19.00;16.67;;;;;;;;5000489;28;45448;-79
2024/03/14 01:26:57;;;;;;;;;16.00;12.00;;;;;;;;5000281;28;45308;-79
2024/03/14 01:29:25;;;;;;;;;12.33;10.67;;;;;;;;5000353;28;46122;-79
2024/03/14 01:31:50;;;;;;;;;9.67;9.67;;;;;;;;4982540;28;45853;-79
2024/03/14 01:34:15;;;;;;;;;8.33;7.33;;;;;;;;5000070;28;45535;-80
2024/03/14 01:36:40;;;;;;;;;10.67;10.67;;;;;;;;4982337;28;45981;-79
2024/03/14 01:39:06;;;;;;;;;10.00;10.00;;;;;;;;5000036;28;45425;-79
2024/03/14 01:41:31;;;;;;;;;10.33;10.33;;;;;;;;4981133;28;45982;-80
2024/03/14 01:43:59;;;;;;;;;9.00;9.00;;;;;;;;5000219;28;45395;-78
2024/03/14 01:46:25;;;;;;;;;11.67;11.67;;;;;;;;5000184;28;45498;-79
2024/03/14 01:48:50;;;;;;;;;11.00;8.67;;;;;;;;5000095;28;45297;-79
2024/03/14 01:51:15;;;;;;;;;13.00;13.00;;;;;;;;4999860;28;45346;-79
2024/03/14 01:53:40;;;;;;;;;11.00;11.00;;;;;;;;5000332;28;45158;-79
2024/03/14 01:56:06;;;;;;;;;10.33;9.67;;;;;;;;4999936;28;45325;-79
2024/03/14 01:58:32;;;;;;;;;11.33;11.33;;;;;;;;4999400;28;47690;-79
2024/03/14 02:00:57;;;;;;;;;9.67;9.00;;;;;;;;5019728;28;45319;-79
2024/03/14 02:03:22;;;;;;;;;6.67;6.33;;;;;;;;5019973;28;45488;-79
2024/03/14 02:05:54;;;;;;;;;11.67;9.00;;;;;;;;5019643;28;45344;-79
2024/03/14 02:08:20;;;;;;;;;8.67;8.67;;;;;;;;5001973;28;48439;-79
2024/03/14 02:10:45;;;;;;;;;9.00;8.00;;;;;;;;5001303;28;45742;-79
2024/03/14 02:13:10;;;;;;;;;10.67;10.67;;;;;;;;5019918;28;45465;-79
2024/03/14 02:15:35;;;;;;;;;8.00;8.00;;;;;;;;5018982;28;45317;-78
2024/03/14 02:18:01;;;;;;;;;8.00;8.00;;;;;;;;5019317;28;45477;-79
2024/03/14 02:20:26;;;;;;;;;9.33;9.33;;;;;;;;4985245;28;45351;-78
2024/03/14 02:22:52;;;;;;;;;9.00;7.33;;;;;;;;5019609;28;45271;-79
2024/03/14 02:25:18;;;;;;;;;10.33;10.33;;;;;;;;5001608;28;46010;-79
2024/03/14 02:27:43;;;;;;;;;9.33;8.00;;;;;;;;5019264;28;46346;-79
2024/03/14 02:30:09;;;;;;;;;11.33;11.33;;;;;;;;5019071;28;45415;-78
2024/03/14 02:32:34;;;;;;;;;8.00;8.00;;;;;;;;5019545;28;45290;-79
2024/03/14 02:35:02;;;;;;;;;9.67;8.00;;;;;;;;5018903;28;45477;-79
2024/03/14 02:37:28;;;;;;;;;7.33;7.33;;;;;;;;5019155;28;46084;-79
2024/03/14 02:39:53;;;;;;;;;8.00;6.67;;;;;;;;5001539;28;45434;-79
2024/03/14 02:42:18;;;;;;;;;8.33;7.33;;;;;;;;5019233;28;45340;-79
2024/03/14 02:44:44;;;;;;;;;9.67;8.67;;;;;;;;5001517;28;46045;-79
2024/03/14 02:47:10;;;;;;;;;13.00;11.33;;;;;;;;5001239;28;47246;-79
2024/03/14 02:49:35;;;;;;;;;22.00;20.00;;;;;;;;5018879;28;45195;-79
2024/03/14 02:52:00;;;;;;;;;17.33;16.67;;;;;;;;5019336;28;45704;-78
2024/03/14 02:54:29;;;;;;;;;15.33;13.67;;;;;;;;5020082;28;45296;-79
2024/03/14 02:56:55;;;;;;;;;15.00;14.67;;;;;;;;5018474;28;46159;-79
2024/03/14 02:59:20;;;;;;;;;13.67;12.67;;;;;;;;5002366;28;45416;-79
2024/03/14 03:01:46;;;;;;;;;12.33;11.33;;;;;;;;5002845;28;45233;-79
2024/03/14 03:04:11;;;;;;;;;15.67;15.00;;;;;;;;5002528;28;45333;-79
2024/03/14 03:06:43;;;;;;;;;17.00;15.67;;;;;;;;4984548;28;47367;-79
2024/03/14 03:09:09;;;;;;;;;20.67;17.67;;;;;;;;5002322;28;45390;-79
2024/03/14 03:11:35;;;;;;;;;19.33;16.00;;;;;;;;4984687;28;45403;-79
2024/03/14 03:14:00;;;;;;;;;16.00;16.00;;;;;;;;5001914;28;45546;-79
2024/03/14 03:16:25;;;;;;;;;12.67;12.00;;;;;;;;5002316;28;46105;-79
2024/03/14 03:18:50;;;;;;;;;12.67;12.67;;;;;;;;5002380;28;45238;-79
2024/03/14 03:21:20;;;;;;;;;8.00;7.67;;;;;;;;5002573;28;45321;-79
2024/03/14 03:23:45;;;;;;;;;12.00;11.00;;;;;;;;5002714;28;45312;-79
2024/03/14 03:26:11;;;;;;;;;12.33;12.00;;;;;;;;5002530;28;45576;-79
2024/03/14 03:28:36;;;;;;;;;14.00;14.00;;;;;;;;5002530;28;45296;-79
2024/03/14 03:31:06;;;;;;;;;13.00;13.00;;;;;;;;5002426;28;45344;-78
2024/03/14 03:33:31;;;;;;;;;14.33;14.00;;;;;;;;4984750;28;46292;-79
2024/03/14 03:35:57;;;;;;;;;10.00;10.00;;;;;;;;5002190;28;46130;-79
2024/03/14 03:38:22;;;;;;;;;13.67;13.67;;;;;;;;5002243;28;45333;-79
2024/03/14 03:40:47;;;;;;;;;15.67;15.33;;;;;;;;5002511;28;45253;-79
2024/03/14 03:43:12;;;;;;;;;16.33;16.00;;;;;;;;5002044;28;45937;-79
2024/03/14 03:45:38;;;;;;;;;16.67;16.33;;;;;;;;5002352;28;45400;-79
2024/03/14 03:48:03;;;;;;;;;17.67;15.33;;;;;;;;5002675;28;45318;-79
2024/03/14 03:50:28;;;;;;;;;18.33;16.67;;;;;;;;4984039;28;45293;-79
2024/03/14 03:52:54;;;;;;;;;21.67;17.00;;;;;;;;5002169;28;45266;-79
2024/03/14 03:55:19;;;;;;;;;23.00;20.00;;;;;;;;4984218;28;47176;-79
2024/03/14 03:57:45;;;;;;;;;17.33;17.33;;;;;;;;4994955;28;45249;-78
2024/03/14 04:02:55;;;;;;;;;18.33;17.67;;;;;;;;5021713;28;45313;-79
2024/03/14 04:05:20;;;;;;;;;16.33;15.33;;;;;;;;5021031;28;46536;-79
2024/03/14 04:07:49;;;;;;;;;20.67;17.67;;;;;;;;5003794;28;45318;-79
2024/03/14 04:10:14;;;;;;;;;18.33;14.33;;;;;;;;5022143;28;45312;-79
2024/03/14 04:12:39;;;;;;;;;24.67;19.00;;;;;;;;5021559;28;45373;-79
2024/03/14 04:15:06;;;;;;;;;20.67;16.33;;;;;;;;5021411;28;45469;-79
2024/03/14 04:17:32;;;;;;;;;18.67;18.67;;;;;;;;5003702;28;45800;-79
2024/03/14 04:19:59;;;;;;;;;19.33;17.33;;;;;;;;5003894;28;45357;-79
2024/03/14 04:22:24;;;;;;;;;14.00;13.33;;;;;;;;5003801;28;46055;-78
2024/03/14 04:24:51;;;;;;;;;14.67;13.00;;;;;;;;5021765;28;46241;-79
2024/03/14 04:27:16;;;;;;;;;11.00;11.00;;;;;;;;5021573;28;45283;-79
2024/03/14 04:29:41;;;;;;;;;13.00;11.33;;;;;;;;5022322;28;45230;-79
2024/03/14 04:32:10;;;;;;;;;8.33;8.00;;;;;;;;5022117;28;45616;-78
2024/03/14 04:34:37;;;;;;;;;10.33;8.00;;;;;;;;5021937;28;45425;-78
2024/03/14 04:37:03;;;;;;;;;11.00;11.00;;;;;;;;5004190;28;45411;-79
2024/03/14 04:39:28;;;;;;;;;7.00;7.00;;;;;;;;5004319;28;45695;-79
2024/03/14 04:41:53;;;;;;;;;12.33;12.00;;;;;;;;5003968;28;46068;-78
2024/03/14 04:44:21;;;;;;;;;13.67;11.67;;;;;;;;5021640;28;45323;-79
2024/03/14 04:46:47;;;;;;;;;5.33;5.00;;;;;;;;5021853;28;45345;-79
2024/03/14 04:49:12;;;;;;;;;10.00;8.00;;;;;;;;5021927;28;45233;-79
2024/03/14 04:51:37;;;;;;;;;6.33;6.00;;;;;;;;5016745;28;45191;-79
2024/03/14 04:54:03;;;;;;;;;6.33;6.33;;;;;;;;5001069;28;46543;-78
2024/03/14 04:56:30;;;;;;;;;8.00;6.00;;;;;;;;5001581;28;45384;-79
2024/03/14 04:58:55;;;;;;;;;8.00;6.00;;;;;;;;5021994;28;45372;-78
2024/03/14 05:01:21;;;;;;;;;9.67;9.33;;;;;;;;5021678;28;45313;-78
2024/03/14 05:03:46;;;;;;;;;7.00;7.00;;;;;;;;5003533;28;46034;-78
2024/03/14 05:06:13;;;;;;;;;6.33;5.00;;;;;;;;5021223;28;45674;-79
2024/03/14 05:08:38;;;;;;;;;8.00;8.00;;;;;;;;5007040;28;45374;-79
2024/03/14 05:11:04;;;;;;;;;8.67;8.67;;;;;;;;5001029;28;45346;-78
2024/03/14 05:13:29;;;;;;;;;8.33;8.33;;;;;;;;5001716;28;46254;-80
2024/03/14 05:15:55;;;;;;;;;11.33;11.33;;;;;;;;4984199;28;45294;-79
2024/03/14 05:18:21;;;;;;;;;11.00;8.00;;;;;;;;5000944;28;45342;-79
2024/03/14 05:20:46;;;;;;;;;9.33;8.00;;;;;;;;5001494;28;45338;-79
2024/03/14 05:23:12;;;;;;;;;12.33;11.00;;;;;;;;4983226;28;47999;-79
2024/03/14 05:25:37;;;;;;;;;7.00;7.00;;;;;;;;5001565;28;45435;-80
2024/03/14 05:28:02;;;;;;;;;6.67;6.67;;;;;;;;4983854;28;45248;-79
2024/03/14 05:30:27;;;;;;;;;9.33;9.33;;;;;;;;4984047;28;46959;-79
2024/03/14 05:32:53;;;;;;;;;11.67;11.00;;;;;;;;4983922;28;47301;-79
2024/03/14 05:35:18;;;;;;;;;10.67;10.67;;;;;;;;5000774;28;45442;-79
2024/03/14 05:37:44;;;;;;;;;12.00;9.33;;;;;;;;4984351;28;45289;-78
2024/03/14 05:40:10;;;;;;;;;8.00;8.00;;;;;;;;5002313;28;45336;-79
2024/03/14 05:42:35;;;;;;;;;10.67;9.00;;;;;;;;5002076;28;45948;-79
2024/03/14 05:45:01;;;;;;;;;6.33;6.33;;;;;;;;5000985;28;45469;-79
2024/03/14 05:47:27;;;;;;;;;8.67;8.67;;;;;;;;4983424;28;45450;-79
2024/03/14 05:49:52;;;;;;;;;7.67;7.67;;;;;;;;4982726;28;46973;-80
2024/03/14 05:52:17;;;;;;;;;12.00;11.00;;;;;;;;4983400;28;47284;-79
2024/03/14 05:54:42;;;;;;;;;11.00;11.00;;;;;;;;5000878;28;45300;-79
2024/03/14 05:57:07;;;;;;;;;11.00;11.00;;;;;;;;5006699;28;45281;-79
2024/03/14 05:59:35;;;;;;;;;9.67;9.33;;;;;;;;5019994;28;45383;-79
2024/03/14 06:02:00;;;;;;;;;11.67;9.33;;;;;;;;5020594;28;46483;-79
2024/03/14 06:04:25;;;;;;;;;13.00;12.00;;;;;;;;5019999;28;45307;-79
2024/03/14 06:06:50;;;;;;;;;9.33;8.33;;;;;;;;5002837;28;45294;-79
2024/03/14 06:09:17;;;;;;;;;8.00;7.33;;;;;;;;5002912;28;46459;-79
2024/03/14 06:11:42;;;;;;;;;10.67;8.00;;;;;;;;5020086;28;45516;-79
2024/03/14 06:14:08;;;;;;;;;11.00;9.33;;;;;;;;5020687;28;45559;-79
2024/03/14 06:16:33;;;;;;;;;12.67;11.00;;;;;;;;5021148;28;45383;-79
2024/03/14 06:18:59;;;;;;;;;5.00;5.00;;;;;;;;5002962;28;46221;-79
2024/03/14 06:21:24;;;;;;;;;9.67;9.33;;;;;;;;5021752;28;46105;-79
2024/03/14 06:23:50;;;;;;;;;9.33;9.33;;;;;;;;5023147;28;45285;-79
2024/03/14 06:26:15;;;;;;;;;11.67;11.67;;;;;;;;5022099;28;45403;-79
2024/03/14 06:28:41;;;;;;;;;9.33;9.33;;;;;;;;5022024;28;45260;-79
2024/03/14 06:31:06;;;;;;;;;9.67;8.33;;;;;;;;5022193;28;45900;-79
2024/03/14 06:33:31;;;;;;;;;8.00;7.33;;;;;;;;5016280;28;45303;-79
2024/03/14 06:35:57;;;;;;;;;9.33;9.33;;;;;;;;4984593;28;45440;-79
2024/03/14 06:38:24;;;;;;;;;9.67;9.67;;;;;;;;5001578;28;45279;-79
2024/03/14 06:40:51;;;;;;;;;6.33;6.33;;;;;;;;5002603;28;45429;-79
2024/03/14 06:43:16;;;;;;;;;11.00;9.00;;;;;;;;4999392;28;45805;-79
2024/03/14 06:45:41;;;;;;;;;11.00;11.00;;;;;;;;5001812;28;45304;-79
2024/03/14 06:48:07;;;;;;;;;10.67;9.33;;;;;;;;5001345;28;45488;-79
2024/03/14 06:50:32;;;;;;;;;6.00;6.00;;;;;;;;4999736;28;45395;-79
2024/03/14 06:52:58;;;;;;;;;8.00;8.00;;;;;;;;4981322;28;45260;-79
2024/03/14 06:55:24;;;;;;;;;8.00;7.67;;;;;;;;4999765;28;45488;-79
2024/03/14 06:57:53;;;;;;;;;8.00;8.00;;;;;;;;5008631;28;45466;-78
2024/03/14 07:00:22;;;;;;;;;10.00;8.00;;;;;;;;5017305;28;45777;-79
2024/03/14 07:02:48;;;;;;;;;7.00;7.00;;;;;;;;5018583;28;45479;-79
2024/03/14 07:05:16;;;;;;;;;12.00;9.33;;;;;;;;5016247;28;45490;-79
2024/03/14 07:07:44;;;;;;;;;8.33;8.33;;;;;;;;4984701;28;46325;-79
2024/03/14 07:10:13;;;;;;;;;13.67;12.00;;;;;;;;4981531;28;47479;-78
2024/03/14 07:12:39;;;;;;;;;11.00;9.67;;;;;;;;5003507;28;45447;-78
2024/03/14 07:15:05;;;;;;;;;13.67;11.00;;;;;;;;5005963;28;45309;-78
2024/03/14 07:17:33;;;;;;;;;11.00;11.00;;;;;;;;4987055;28;45914;-78
2024/03/14 07:19:59;;;;;;;;;10.33;8.00;;;;;;;;4985117;28;46178;-79
2024/03/14 07:22:25;;;;;;;;;8.00;7.00;;;;;;;;4997124;28;45359;-79
2024/03/14 07:24:51;;;;;;;;;12.33;11.00;;;;;;;;4984925;28;45383;-78
2024/03/14 07:27:17;;;;;;;;;6.67;5.00;;;;;;;;4999268;28;45274;-78
2024/03/14 07:29:42;;;;;;;;;13.00;12.00;;;;;;;;4998930;28;45278;-79
2024/03/14 07:32:07;;;;;;;;;11.67;11.33;;;;;;;;4999347;28;45289;-78
2024/03/14 07:34:34;;;;;;;;;9.33;9.33;;;;;;;;4998811;28;45217;-78
2024/03/14 07:37:00;;;;;;;;;12.33;10.67;;;;;;;;4980836;28;46425;-78
2024/03/14 07:39:29;;;;;;;;;12.00;11.33;;;;;;;;5001389;28;46202;-78
2024/03/14 07:41:54;;;;;;;;;13.67;13.67;;;;;;;;5002184;28;45343;-78
2024/03/14 07:44:20;;;;;;;;;13.33;10.67;;;;;;;;5004759;28;45211;-79
2024/03/14 07:46:45;;;;;;;;;9.00;9.00;;;;;;;;4985943;28;45663;-79
2024/03/14 07:49:10;;;;;;;;;8.33;8.33;;;;;;;;4987438;28;46826;-77
2024/03/14 07:51:36;;;;;;;;;6.67;6.67;;;;;;;;5003270;28;45204;-79
2024/03/14 07:54:01;;;;;;;;;9.67;9.00;;;;;;;;5003683;28;45230;-77
2024/03/14 07:56:26;;;;;;;;;8.33;6.67;;;;;;;;5003580;28;45215;-77
2024/03/14 07:58:51;;;;;;;;;17.67;17.67;;;;;;;;5028574;28;46054;-77
2024/03/14 08:01:16;;;;;;;;;18.00;16.67;;;;;;;;5023311;28;45190;-77
2024/03/14 08:03:48;;;;;;;;;19.00;17.33;;;;;;;;5024378;28;45320;-77
2024/03/14 08:06:16;;;;;;;;;19.00;18.00;;;;;;;;5028908;28;46122;-77
2024/03/14 08:08:42;;;;;;;;;19.67;16.67;;;;;;;;5025337;28;46449;-77
2024/03/14 08:11:12;;;;;;;;;13.00;12.67;;;;;;;;5027684;28;45415;-77
2024/03/14 08:13:39;;;;;;;;;17.67;17.00;;;;;;;;5003819;28;45384;-77
2024/03/14 08:16:21;;;;;;;;;11.00;9.00;;;;;;;;5022112;28;45860;-77
2024/03/14 08:18:46;;;;;;;;;9.00;9.00;;;;;;;;5008896;28;45404;-77
2024/03/14 08:21:12;;;;;;;;;7.67;6.67;;;;;;;;5022105;28;45555;-77
2024/03/14 08:23:41;;;;;;;;;8.67;8.67;;;;;;;;5005320;28;45432;-77
2024/03/14 08:26:07;;;;;;;;;8.33;8.33;;;;;;;;5023438;28;45502;-77
2024/03/14 08:28:32;;;;;;;;;8.00;7.00;;;;;;;;5025315;28;45840;-77
2024/03/14 08:30:58;;;;;;;;;7.00;6.33;;;;;;;;5022078;28;45230;-78
2024/03/14 08:33:24;;;;;;;;;6.00;6.00;;;;;;;;5003956;28;45470;-77
2024/03/14 08:35:49;;;;;;;;;8.00;6.67;;;;;;;;4998676;28;45337;-78
2024/03/14 08:38:15;;;;;;;;;10.00;7.67;;;;;;;;4963462;28;47649;-78
2024/03/14 08:40:40;;;;;;;;;7.00;7.00;;;;;;;;5000103;28;45345;-78
2024/03/14 08:43:05;;;;;;;;;7.00;5.67;;;;;;;;4982849;28;45326;-78
2024/03/14 08:45:35;;;;;;;;;8.00;8.00;;;;;;;;5000204;28;45407;-79
2024/03/14 08:48:00;;;;;;;;;6.33;6.33;;;;;;;;5000799;28;47454;-77
2024/03/14 08:50:26;;;;;;;;;8.00;8.00;;;;;;;;5001278;28;45334;-77
2024/03/14 08:52:51;;;;;;;;;6.67;5.00;;;;;;;;4983059;28;45223;-77
2024/03/14 08:55:34;;;;;;;;;5.67;5.67;;;;;;;;4983809;28;45939;-77
2024/03/14 08:58:02;;;;;;;;;5.67;5.67;;;;;;;;4970282;28;48411;-77
2024/03/14 09:00:28;;;;;;;;;8.00;8.00;;;;;;;;4981154;28;45334;-77
2024/03/14 09:02:53;;;;;;;;;6.00;6.00;;;;;;;;5004732;28;45385;-78
2024/03/14 09:05:20;;;;;;;;;7.33;6.33;;;;;;;;5004019;28;47184;-77
2024/03/14 09:07:48;;;;;;;;;6.00;6.00;;;;;;;;5018469;28;45531;-77
2024/03/14 09:10:16;;;;;;;;;9.00;7.33;;;;;;;;5002784;28;45252;-78
2024/03/14 09:12:45;;;;;;;;;8.00;7.00;;;;;;;;5013166;28;45280;-77
2024/03/14 09:15:11;;;;;;;;;7.33;7.33;;;;;;;;5007234;28;46322;-77
2024/03/14 09:17:36;;;;;;;;;6.33;5.67;;;;;;;;4999279;28;47115;-77
2024/03/14 09:20:08;;;;;;;;;8.67;8.33;;;;;;;;5000422;28;45290;-77
2024/03/14 09:22:34;;;;;;;;;10.00;9.00;;;;;;;;5009045;28;45425;-78
2024/03/14 09:25:01;;;;;;;;;8.00;8.00;;;;;;;;4990457;28;45352;-78
2024/03/14 09:27:26;;;;;;;;;9.00;8.00;;;;;;;;4998760;28;45455;-78
2024/03/14 09:29:54;;;;;;;;;9.67;9.67;;;;;;;;5004726;28;45412;-77
2024/03/14 09:32:19;;;;;;;;;7.33;6.33;;;;;;;;5004020;28;45129;-77
2024/03/14 09:34:44;;;;;;;;;7.67;7.00;;;;;;;;5002171;28;45419;-77
2024/03/14 09:37:10;;;;;;;;;9.00;7.33;;;;;;;;5002103;28;45270;-78
2024/03/14 09:39:35;;;;;;;;;9.33;8.00;;;;;;;;5000680;28;46326;-78
2024/03/14 09:42:00;;;;;;;;;6.33;6.33;;;;;;;;5002849;28;45227;-77
2024/03/14 09:44:27;;;;;;;;;6.00;6.00;;;;;;;;4981205;28;46881;-77
2024/03/14 09:47:05;;;;;;;;;6.33;5.67;;;;;;;;5001619;28;45518;-78
2024/03/14 09:49:32;;;;;;;;;7.33;7.33;;;;;;;;5000087;28;45381;-78
2024/03/14 09:51:58;;;;;;;;;6.67;6.67;;;;;;;;4983955;28;45536;-77
2024/03/14 09:54:26;;;;;;;;;6.33;6.33;;;;;;;;4982958;28;46448;-77
2024/03/14 09:56:51;;;;;;;;;7.00;7.00;;;;;;;;5004063;28;45921;-76
2024/03/14 09:59:16;;;;;;;;;8.33;7.00;;;;;;;;4999842;28;45556;-76
2024/03/14 10:01:46;;;;;;;;;5.33;4.33;;;;;;;;4980734;28;45262;-76
2024/03/14 10:04:11;;;;;;;;;7.33;6.00;;;;;;;;4998057;28;45298;-75
2024/03/14 10:06:40;;;;;;;;;8.00;6.33;;;;;;;;4975338;28;48029;-77
2024/03/14 10:09:10;;;;;;;;;7.33;5.00;;;;;;;;4998137;28;45402;-78
2024/03/14 10:11:37;;;;;;;;;5.00;5.00;;;;;;;;4988730;28;45361;-77
2024/03/14 10:14:06;;;;;;;;;6.00;6.00;;;;;;;;4997277;28;47051;-76
2024/03/14 10:16:32;;;;;;;;;5.00;5.00;;;;;;;;4986352;28;45354;-78
2024/03/14 10:18:58;;;;;;;;;8.00;6.00;;;;;;;;5015976;28;45266;-77
2024/03/14 10:21:24;;;;;;;;;6.67;5.33;;;;;;;;5020213;28;45600;-77
2024/03/14 10:23:49;;;;;;;;;6.00;5.00;;;;;;;;5017043;28;45571;-77
2024/03/14 10:26:14;;;;;;;;;7.00;7.00;;;;;;;;4999270;28;45251;-76
2024/03/14 10:28:40;;;;;;;;;6.00;6.00;;;;;;;;4979850;28;45802;-77
2024/03/14 10:31:06;;;;;;;;;6.33;6.33;;;;;;;;4980849;28;45700;-78
2024/03/14 10:33:32;;;;;;;;;7.00;7.00;;;;;;;;4998877;28;46111;-77
2024/03/14 10:35:58;;;;;;;;;7.00;7.00;;;;;;;;4981269;28;47646;-77
2024/03/14 10:38:25;;;;;;;;;5.67;5.00;;;;;;;;5000268;28;45310;-76
2024/03/14 10:40:52;;;;;;;;;6.33;6.00;;;;;;;;5000665;28;45216;-77
2024/03/14 10:43:19;;;;;;;;;7.00;7.00;;;;;;;;5000048;28;45152;-77
2024/03/14 10:45:44;;;;;;;;;4.33;4.00;;;;;;;;4999073;28;45388;-76
2024/03/14 10:48:10;;;;;;;;;6.00;6.00;;;;;;;;4999604;28;45481;-76
2024/03/14 10:50:36;;;;;;;;;8.00;7.00;;;;;;;;4997276;28;45385;-77
2024/03/14 10:53:02;;;;;;;;;5.33;5.00;;;;;;;;4981001;28;46345;-77
2024/03/14 10:55:30;;;;;;;;;6.67;5.67;;;;;;;;4999020;28;46506;-79
2024/03/14 10:57:58;;;;;;;;;6.67;6.67;;;;;;;;4993654;28;45278;-77
2024/03/14 11:00:24;;;;;;;;;6.33;6.33;;;;;;;;5018794;28;45306;-77
2024/03/14 11:02:50;;;;;;;;;3.00;3.00;;;;;;;;5018786;28;46008;-77
2024/03/14 11:05:22;;;;;;;;;5.00;5.00;;;;;;;;5000497;28;48188;-77
2024/03/14 11:07:51;;;;;;;;;6.67;6.00;;;;;;;;5019007;28;45333;-78
2024/03/14 11:10:23;;;;;;;;;8.00;8.00;;;;;;;;5019114;28;45380;-77
2024/03/14 11:12:53;;;;;;;;;7.00;6.33;;;;;;;;5019125;28;45375;-78
2024/03/14 11:15:21;;;;;;;;;6.33;6.00;;;;;;;;5001994;28;48645;-78
2024/03/14 11:17:50;;;;;;;;;5.00;5.00;;;;;;;;5022811;28;45260;-79
2024/03/14 11:20:19;;;;;;;;;5.33;5.33;;;;;;;;5022314;28;45396;-78
2024/03/14 11:22:45;;;;;;;;;7.33;7.00;;;;;;;;5022161;28;45386;-78
2024/03/14 11:25:17;;;;;;;;;7.00;7.00;;;;;;;;5022387;28;45250;-78
2024/03/14 11:27:43;;;;;;;;;6.00;6.00;;;;;;;;5011160;28;45380;-78
2024/03/14 11:30:15;;;;;;;;;6.67;6.00;;;;;;;;5002196;28;45359;-79
2024/03/14 11:32:46;;;;;;;;;6.75;6.75;;;;;;;;5001616;28;45329;-78
2024/03/14 11:35:26;;;;;;;;;6.00;6.00;;;;;;;;4999197;28;45488;-77
2024/03/14 11:37:51;;;;;;;;;4.75;4.75;;;;;;;;4982941;28;45332;-78
2024/03/14 11:40:17;;;;;;;;;5.00;5.00;;;;;;;;4980942;28;45534;-78
2024/03/14 11:42:49;;;;;;;;;7.00;6.25;;;;;;;;5000584;28;45492;-77
2024/03/14 11:45:18;;;;;;;;;8.25;7.50;;;;;;;;4998435;28;46486;-78
2024/03/14 11:47:43;;;;;;;;;7.00;7.00;;;;;;;;5001367;28;45329;-79
2024/03/14 11:50:08;;;;;;;;;7.75;7.50;;;;;;;;5002110;28;45314;-78
2024/03/14 11:52:35;;;;;;;;;7.75;7.75;;;;;;;;5001548;28;45428;-77
2024/03/14 11:55:05;;;;;;;;;9.00;9.00;;;;;;;;4999255;28;46454;-78
2024/03/14 11:57:30;;;;;;;;;5.75;5.75;;;;;;;;4986437;28;45392;-78
2024/03/14 11:59:56;;;;;;;;;7.25;6.50;;;;;;;;5003541;28;45399;-77
2024/03/14 12:02:21;;;;;;;;;11.00;10.50;;;;;;;;5021254;28;45365;-77
2024/03/14 12:04:47;;;;;;;;;6.00;6.00;;;;;;;;5020868;28;46225;-77
2024/03/14 12:07:12;;;;;;;;;6.75;6.00;;;;;;;;5014879;28;45337;-79
2024/03/14 12:09:38;;;;;;;;;8.50;8.50;;;;;;;;5001018;28;45427;-77
2024/03/14 12:12:04;;;;;;;;;10.50;9.25;;;;;;;;5000774;28;45486;-79
2024/03/14 12:14:29;;;;;;;;;8.25;7.50;;;;;;;;5001103;28;45633;-79
2024/03/14 12:16:54;;;;;;;;;9.00;9.00;;;;;;;;4983091;28;45287;-77
2024/03/14 12:19:19;;;;;;;;;8.50;8.50;;;;;;;;5001383;28;45257;-77
2024/03/14 12:21:53;;;;;;;;;7.75;7.25;;;;;;;;5001432;28;45349;-77
2024/03/14 12:24:19;;;;;;;;;10.00;9.75;;;;;;;;4983526;28;48889;-78
2024/03/14 12:26:44;;;;;;;;;9.50;8.25;;;;;;;;5000464;28;45250;-77
2024/03/14 12:29:09;;;;;;;;;10.00;9.67;;;;;;;;5001467;28;45492;-77
2024/03/14 12:31:38;;;;;;;;;9.75;8.00;;;;;;;;4999673;28;45332;-77
2024/03/14 12:34:05;;;;;;;;;8.25;8.25;;;;;;;;5000115;28;45464;-77
2024/03/14 12:36:31;;;;;;;;;8.50;8.50;;;;;;;;5000493;28;45451;-77
2024/03/14 12:38:56;;;;;;;;;9.75;8.00;;;;;;;;5001206;28;45374;-77
2024/03/14 12:41:22;;;;;;;;;8.50;8.00;;;;;;;;5001341;28;45629;-77
2024/03/14 12:43:47;;;;;;;;;6.75;6.75;;;;;;;;4999713;28;45472;-78
2024/03/14 12:46:12;;;;;;;;;7.25;7.25;;;;;;;;4982362;28;45428;-78
2024/03/14 12:48:38;;;;;;;;;8.25;7.00;;;;;;;;5000084;28;45409;-77
2024/03/14 12:51:13;;;;;;;;;12.33;10.67;;;;;;;;5000265;28;45659;-77
2024/03/14 12:53:41;;;;;;;;;11.00;11.00;;;;;;;;5000850;28;46341;-78
2024/03/14 12:56:07;;;;;;;;;10.50;9.75;;;;;;;;5001299;28;45281;-78
2024/03/14 12:58:33;;;;;;;;;12.75;11.75;;;;;;;;5002849;28;45229;-78
2024/03/14 13:00:59;;;;;;;;;10.00;9.00;;;;;;;;5003316;28;45182;-78
2024/03/14 13:03:25;;;;;;;;;10.00;8.00;;;;;;;;5000657;28;45438;-78
2024/03/14 13:05:50;;;;;;;;;13.50;11.00;;;;;;;;5001254;28;45353;-77
2024/03/14 13:08:17;;;;;;;;;12.00;11.33;;;;;;;;5000915;28;45504;-78
2024/03/14 13:10:42;;;;;;;;;18.67;15.00;;;;;;;;5000513;28;45369;-78
2024/03/14 13:13:11;;;;;;;;;14.00;14.00;;;;;;;;4989842;28;46068;-78
2024/03/14 13:15:39;;;;;;;;;8.50;8.50;;;;;;;;4965460;28;45423;-78
2024/03/14 13:18:04;;;;;;;;;7.25;7.00;;;;;;;;5000640;28;45363;-78
2024/03/14 13:20:31;;;;;;;;;9.75;9.75;;;;;;;;5000156;28;45412;-79
2024/03/14 13:22:57;;;;;;;;;7.00;5.00;;;;;;;;5000421;28;45464;-78
2024/03/14 13:25:22;;;;;;;;;6.75;6.75;;;;;;;;4982345;28;45351;-78
2024/03/14 13:27:48;;;;;;;;;10.75;9.00;;;;;;;;5002462;28;45363;-78
2024/03/14 13:30:13;;;;;;;;;8.25;8.25;;;;;;;;5001016;28;45510;-77
2024/03/14 13:32:38;;;;;;;;;7.75;7.50;;;;;;;;5000548;28;45283;-78
2024/03/14 13:35:05;;;;;;;;;7.00;6.50;;;;;;;;5000004;28;45353;-77
2024/03/14 13:37:30;;;;;;;;;6.25;6.00;;;;;;;;4982234;28;45267;-78
2024/03/14 13:39:56;;;;;;;;;5.25;5.25;;;;;;;;5000187;28;45508;-78
2024/03/14 13:42:23;;;;;;;;;6.00;6.00;;;;;;;;4982175;28;47226;-77
2024/03/14 13:44:49;;;;;;;;;6.00;6.00;;;;;;;;4982268;28;45583;-78
2024/03/14 13:47:16;;;;;;;;;5.75;5.75;;;;;;;;5000376;28;45346;-78
2024/03/14 13:49:44;;;;;;;;;6.75;5.75;;;;;;;;4982651;28;46176;-76
2024/03/14 13:52:11;;;;;;;;;5.25;5.25;;;;;;;;4982628;28;46019;-76
2024/03/14 13:54:36;;;;;;;;;5.00;5.00;;;;;;;;5000586;28;45282;-76
2024/03/14 13:57:02;;;;;;;;;6.75;6.75;;;;;;;;5001121;28;45380;-77
2024/03/14 13:59:27;;;;;;;;;4.50;4.25;;;;;;;;5000019;28;45511;-76
2024/03/14 14:01:52;;;;;;;;;6.75;6.75;;;;;;;;4999662;28;45226;-76
2024/03/14 14:04:19;;;;;;;;;4.50;4.50;;;;;;;;4999891;28;45212;-76
2024/03/14 14:06:44;;;;;;;;;8.00;6.25;;;;;;;;5000738;28;45392;-77
2024/03/14 14:09:09;;;;;;;;;5.25;5.25;;;;;;;;4982262;28;46462;-77
2024/03/14 14:11:35;;;;;;;;;7.00;7.00;;;;;;;;4999630;28;45744;-77
2024/03/14 14:14:00;;;;;;;;;6.75;5.25;;;;;;;;4999875;28;45377;-77
2024/03/14 14:16:26;;;;;;;;;4.25;4.25;;;;;;;;4999945;28;45345;-77
2024/03/14 14:18:51;;;;;;;;;3.00;3.00;;;;;;;;4999412;28;45494;-78
2024/03/14 14:21:17;;;;;;;;;5.00;5.00;;;;;;;;4999796;28;45612;-77
2024/03/14 14:23:42;;;;;;;;;5.75;5.75;;;;;;;;4999347;28;45349;-77
2024/03/14 14:26:10;;;;;;;;;5.00;5.00;;;;;;;;4999819;28;45361;-77
2024/03/14 14:28:36;;;;;;;;;5.00;5.00;;;;;;;;4999582;28;45272;-77
2024/03/14 14:31:01;;;;;;;;;6.50;6.25;;;;;;;;4981717;28;47984;-77